Time;durP1;ratioP1;P1;durP2;ratioP2;P2;SDS_P1;SDS_P2;PMS_P1;PMS_P2;Temp;Humidity;BMP_temperature;BMP_pressure;BME280_temperature;BME280_humidity;BME280_pressure;Samples;Min_cycle;Max_cycle;Signal;HPM_P1;HPM_P2
2024/01/29 00:01:19;;;;;;;20.97;11.77;;;3.90;99.90;;;;;;5089303;28;20238;-63
2024/01/29 00:03:47;;;;;;;17.23;10.63;;;3.90;99.90;;;;;;5088988;28;20230;-63
2024/01/29 00:06:16;;;;;;;14.90;11.00;;;3.90;99.90;;;;;;5089500;28;20203;-63
2024/01/29 00:08:44;;;;;;;19.17;11.43;;;3.90;99.90;;;;;;5089330;28;20537;-62
2024/01/29 00:11:14;;;;;;;17.10;11.60;;;4.00;99.90;;;;;;5088876;28;20825;-63
2024/01/29 00:13:44;;;;;;;18.77;12.40;;;4.00;99.90;;;;;;5089105;28;20226;-66
2024/01/29 00:16:13;;;;;;;22.67;12.30;;;3.90;99.90;;;;;;5089276;28;20253;-64
2024/01/29 00:18:41;;;;;;;17.30;13.40;;;4.00;99.90;;;;;;5088512;28;20720;-64
2024/01/29 00:21:09;;;;;;;17.47;11.80;;;3.90;99.90;;;;;;5088886;28;20291;-65
2024/01/29 00:23:38;;;;;;;14.93;11.30;;;3.90;99.90;;;;;;5088835;28;20211;-64
2024/01/29 00:26:06;;;;;;;18.33;12.23;;;4.00;99.90;;;;;;5089070;28;20221;-64
2024/01/29 00:28:36;;;;;;;19.67;11.97;;;3.90;99.90;;;;;;5089044;28;20677;-63
2024/01/29 00:31:04;;;;;;;19.53;11.10;;;3.90;99.90;;;;;;5088741;28;20641;-64
2024/01/29 00:33:33;;;;;;;21.33;11.37;;;3.90;99.90;;;;;;5088212;28;20817;-65
2024/01/29 00:36:01;;;;;;;22.93;11.97;;;3.80;99.90;;;;;;5088615;28;20201;-64
2024/01/29 00:38:30;;;;;;;20.03;10.97;;;3.90;99.90;;;;;;5088564;28;20326;-65
2024/01/29 00:40:58;;;;;;;23.10;12.43;;;3.70;99.90;;;;;;5069610;28;20209;-64
2024/01/29 00:43:26;;;;;;;23.60;11.07;;;3.60;99.90;;;;;;5088736;28;20200;-65
2024/01/29 00:45:56;;;;;;;21.23;10.90;;;3.70;99.90;;;;;;5088865;28;20931;-65
2024/01/29 00:48:25;;;;;;;19.80;13.17;;;3.80;99.90;;;;;;5087522;28;20675;-64
2024/01/29 00:50:55;;;;;;;18.03;12.10;;;3.90;99.90;;;;;;5088604;28;20180;-64
2024/01/29 00:53:24;;;;;;;20.63;12.53;;;3.80;99.90;;;;;;5088357;28;20192;-63
2024/01/29 00:55:53;;;;;;;22.03;12.73;;;3.60;99.90;;;;;;5088539;28;20691;-65
2024/01/29 00:58:22;;;;;;;16.73;11.37;;;3.70;99.90;;;;;;5088657;28;20219;-64
2024/01/29 01:00:50;;;;;;;18.73;12.17;;;3.60;99.90;;;;;;5088511;28;20291;-63
2024/01/29 01:03:20;;;;;;;19.60;11.73;;;3.60;99.90;;;;;;5088343;28;20192;-64
2024/01/29 01:05:48;;;;;;;18.60;11.73;;;3.80;99.90;;;;;;5088714;28;20654;-65
2024/01/29 01:08:17;;;;;;;20.17;12.13;;;3.90;99.90;;;;;;5088597;28;20210;-63
2024/01/29 01:10:45;;;;;;;22.93;13.00;;;4.00;99.90;;;;;;5088316;28;20192;-63
2024/01/29 01:13:13;;;;;;;15.30;12.53;;;4.00;99.90;;;;;;5088782;28;20255;-65
2024/01/29 01:15:42;;;;;;;21.83;12.27;;;4.00;99.90;;;;;;5088551;28;20196;-62
2024/01/29 01:18:10;;;;;;;17.93;12.57;;;3.90;99.90;;;;;;5087761;28;20207;-66
2024/01/29 01:20:40;;;;;;;18.87;12.13;;;3.90;99.90;;;;;;5088087;28;20206;-64
2024/01/29 01:23:08;;;;;;;18.10;12.80;;;4.00;99.90;;;;;;5087880;28;20684;-63
2024/01/29 01:25:36;;;;;;;21.93;13.20;;;3.90;99.90;;;;;;5088399;28;20772;-64
2024/01/29 01:28:06;;;;;;;21.63;12.97;;;3.90;99.90;;;;;;5088054;28;20197;-64
2024/01/29 01:30:34;;;;;;;21.73;13.27;;;3.90;99.90;;;;;;5088571;28;20233;-65
2024/01/29 01:33:03;;;;;;;21.87;13.57;;;3.90;99.90;;;;;;5088391;28;20199;-65
2024/01/29 01:35:31;;;;;;;29.60;16.27;;;3.90;99.90;;;;;;5088601;28;20192;-65
2024/01/29 01:38:01;;;;;;;19.30;13.57;;;3.90;99.90;;;;;;5069082;28;20197;-64
2024/01/29 01:40:29;;;;;;;18.37;12.77;;;3.90;99.90;;;;;;5067950;28;20620;-63
2024/01/29 01:42:57;;;;;;;20.50;13.43;;;3.90;99.90;;;;;;5067649;28;20208;-67
2024/01/29 01:45:28;;;;;;;20.70;12.83;;;4.00;99.90;;;;;;5068287;28;20195;-64
2024/01/29 01:47:56;;;;;;;26.07;14.17;;;4.00;99.90;;;;;;5068249;28;20549;-62
2024/01/29 01:50:25;;;;;;;20.53;13.73;;;4.00;99.90;;;;;;5068012;28;20578;-62
2024/01/29 01:52:53;;;;;;;23.00;13.10;;;3.90;99.90;;;;;;5067474;28;20212;-62
2024/01/29 01:55:23;;;;;;;19.57;13.57;;;3.90;99.90;;;;;;5068347;28;20247;-63
2024/01/29 01:57:52;;;;;;;20.83;13.07;;;3.90;99.90;;;;;;5068068;28;20242;-66
2024/01/29 02:00:21;;;;;;;21.30;14.23;;;4.00;99.90;;;;;;5071122;28;20192;-64
2024/01/29 02:02:50;;;;;;;20.00;12.47;;;4.00;99.90;;;;;;5071634;28;20211;-65
2024/01/29 02:05:18;;;;;;;21.33;13.73;;;4.10;99.90;;;;;;5071500;28;20661;-64
2024/01/29 02:07:47;;;;;;;21.03;13.63;;;4.00;99.90;;;;;;5071834;28;20231;-63
2024/01/29 02:10:15;;;;;;;23.07;13.23;;;4.00;99.90;;;;;;5071782;28;20203;-65
2024/01/29 02:12:46;;;;;;;22.47;13.40;;;3.90;99.90;;;;;;5071207;28;20196;-66
2024/01/29 02:15:14;;;;;;;22.73;12.60;;;3.80;99.90;;;;;;5071819;28;20222;-67
2024/01/29 02:17:42;;;;;;;23.10;13.80;;;3.90;99.90;;;;;;5071518;28;20220;-66
2024/01/29 02:20:11;;;;;;;19.47;12.77;;;3.90;99.90;;;;;;5070955;28;20232;-65
2024/01/29 02:22:44;;;;;;;28.30;13.80;;;3.90;99.90;;;;;;5071289;28;20197;-65
2024/01/29 02:25:14;;;;;;;16.57;11.97;;;4.00;99.90;;;;;;5071453;28;20225;-65
2024/01/29 02:27:42;;;;;;;21.40;13.23;;;4.00;99.90;;;;;;5053036;28;20260;-65
2024/01/29 02:30:12;;;;;;;23.50;13.07;;;3.90;99.90;;;;;;5075988;28;20232;-65
2024/01/29 02:32:40;;;;;;;21.37;12.57;;;3.90;99.90;;;;;;5091218;28;20212;-64
2024/01/29 02:35:09;;;;;;;21.93;14.13;;;3.90;99.90;;;;;;5090776;28;20638;-68
2024/01/29 02:37:37;;;;;;;17.10;11.70;;;4.00;99.90;;;;;;5091285;28;20740;-63
2024/01/29 02:40:08;;;;;;;21.73;13.83;;;4.00;99.90;;;;;;5091318;28;20257;-63
2024/01/29 02:42:37;;;;;;;18.73;13.80;;;4.00;99.90;;;;;;5090871;28;20296;-65
2024/01/29 02:45:06;;;;;;;22.93;12.80;;;4.00;99.90;;;;;;5091299;28;20184;-63
2024/01/29 02:47:34;;;;;;;19.33;13.20;;;4.10;99.90;;;;;;5091264;28;20204;-66
2024/01/29 02:50:03;;;;;;;20.40;12.60;;;4.10;99.90;;;;;;5090842;28;20199;-65
2024/01/29 02:52:31;;;;;;;24.33;13.60;;;4.10;99.90;;;;;;5091126;28;20282;-63
2024/01/29 02:54:59;;;;;;;22.63;12.80;;;4.00;99.90;;;;;;5091119;28;20227;-65
2024/01/29 02:57:29;;;;;;;23.10;12.63;;;3.90;99.90;;;;;;5090381;28;20201;-67
2024/01/29 02:59:57;;;;;;;18.43;12.70;;;3.90;99.90;;;;;;5090586;28;20732;-65
2024/01/29 03:02:26;;;;;;;21.30;13.43;;;3.90;99.90;;;;;;5090655;28;20243;-64
2024/01/29 03:04:54;;;;;;;21.93;12.70;;;3.90;99.90;;;;;;5090393;28;20194;-65
2024/01/29 03:07:23;;;;;;;21.80;13.50;;;3.90;99.90;;;;;;5090502;28;20192;-64
2024/01/29 03:09:51;;;;;;;21.63;13.37;;;3.80;99.90;;;;;;5089996;28;20185;-63
2024/01/29 03:12:19;;;;;;;21.10;13.43;;;3.80;99.90;;;;;;5089614;28;20207;-63
2024/01/29 03:14:49;;;;;;;22.50;13.67;;;3.90;99.90;;;;;;5090650;28;20194;-63
2024/01/29 03:17:17;;;;;;;21.50;13.80;;;4.00;99.90;;;;;;5090580;28;20194;-64
2024/01/29 03:19:46;;;;;;;20.97;14.10;;;3.90;99.90;;;;;;5090009;28;20685;-66
2024/01/29 03:22:14;;;;;;;24.20;15.43;;;4.00;99.90;;;;;;5090340;28;20203;-65
2024/01/29 03:24:42;;;;;;;23.70;14.00;;;4.00;99.90;;;;;;5090198;28;20197;-63
2024/01/29 03:27:11;;;;;;;23.10;12.23;;;3.80;99.90;;;;;;5089522;28;20196;-64
2024/01/29 03:29:40;;;;;;;20.27;13.47;;;3.90;99.90;;;;;;5090048;28;20285;-65
2024/01/29 03:32:10;;;;;;;22.63;13.20;;;3.80;99.90;;;;;;5090065;28;20202;-64
2024/01/29 03:34:42;;;;;;;23.03;13.40;;;3.90;99.90;;;;;;5089945;28;20213;-64
2024/01/29 03:37:11;;;;;;;23.30;14.67;;;3.80;99.90;;;;;;5090164;28;20195;-63
2024/01/29 03:39:39;;;;;;;21.63;13.47;;;3.90;99.90;;;;;;5090022;28;20216;-66
2024/01/29 03:42:08;;;;;;;19.30;12.80;;;3.80;99.90;;;;;;5090231;28;20287;-66
2024/01/29 03:44:36;;;;;;;20.97;13.70;;;3.90;99.90;;;;;;5090123;28;20187;-65
2024/01/29 03:47:04;;;;;;;22.00;13.53;;;4.00;99.90;;;;;;5089508;28;20206;-61
2024/01/29 03:49:34;;;;;;;22.20;12.73;;;3.90;99.90;;;;;;5089886;28;20195;-61
2024/01/29 03:52:03;;;;;;;22.50;13.53;;;3.80;99.90;;;;;;5089799;28;20197;-65
2024/01/29 03:54:31;;;;;;;20.27;13.80;;;3.90;99.90;;;;;;5089690;28;20196;-64
2024/01/29 03:57:00;;;;;;;24.37;14.53;;;3.80;99.90;;;;;;5089792;28;20249;-65
2024/01/29 03:59:28;;;;;;;19.17;13.53;;;3.90;99.90;;;;;;5089451;28;20273;-66
2024/01/29 04:01:56;;;;;;;23.83;13.20;;;3.80;99.90;;;;;;5089394;28;20199;-65
2024/01/29 04:04:24;;;;;;;20.53;12.77;;;3.80;99.90;;;;;;5088700;28;20198;-65
2024/01/29 04:06:55;;;;;;;19.80;12.97;;;3.90;99.90;;;;;;5088819;28;20204;-66
2024/01/29 04:09:23;;;;;;;19.20;12.87;;;4.00;99.90;;;;;;5088818;28;20200;-66
2024/01/29 04:11:52;;;;;;;22.27;13.80;;;4.00;99.90;;;;;;5088634;28;20557;-64
2024/01/29 04:14:21;;;;;;;17.87;12.43;;;4.10;99.90;;;;;;5088471;28;20246;-64
2024/01/29 04:16:51;;;;;;;25.07;12.67;;;4.10;99.90;;;;;;5088648;28;20184;-64
2024/01/29 04:19:19;;;;;;;20.23;12.07;;;4.00;99.90;;;;;;5088551;28;20617;-66
2024/01/29 04:21:48;;;;;;;20.10;12.83;;;4.10;99.90;;;;;;5088618;28;20200;-66
2024/01/29 04:24:17;;;;;;;18.23;11.50;;;4.20;99.90;;;;;;5088585;28;20747;-65
2024/01/29 04:26:46;;;;;;;20.23;12.97;;;4.20;99.90;;;;;;5088544;28;20553;-66
2024/01/29 04:29:14;;;;;;;24.80;14.43;;;4.10;99.90;;;;;;5088497;28;20196;-63
2024/01/29 04:31:42;;;;;;;18.70;13.30;;;4.00;99.90;;;;;;5087670;28;20309;-63
2024/01/29 04:34:10;;;;;;;23.20;12.37;;;4.00;99.90;;;;;;5088847;28;20233;-64
2024/01/29 04:36:39;;;;;;;18.93;13.40;;;3.90;99.90;;;;;;5088885;28;20203;-63
2024/01/29 04:39:07;;;;;;;19.57;12.63;;;4.00;99.90;;;;;;5088859;28;20207;-63
2024/01/29 04:41:37;;;;;;;23.43;13.10;;;3.80;99.90;;;;;;5089027;28;20220;-64
2024/01/29 04:44:05;;;;;;;18.37;11.90;;;3.70;99.90;;;;;;5088549;28;20621;-63
2024/01/29 04:46:33;;;;;;;18.90;12.60;;;3.90;99.90;;;;;;5088046;28;20192;-64
2024/01/29 04:49:02;;;;;;;21.17;13.47;;;3.90;99.90;;;;;;5070020;28;20319;-63
2024/01/29 04:51:30;;;;;;;19.97;13.03;;;3.90;99.90;;;;;;5088309;28;20198;-63
2024/01/29 04:53:59;;;;;;;24.90;13.23;;;3.90;99.90;;;;;;5088162;28;20661;-63
2024/01/29 04:56:27;;;;;;;19.10;12.87;;;3.80;99.90;;;;;;5087916;28;20199;-63
2024/01/29 04:58:57;;;;;;;20.60;13.33;;;3.90;99.90;;;;;;5087819;28;20254;-64
2024/01/29 05:01:25;;;;;;;18.80;12.80;;;3.90;99.90;;;;;;5087820;28;20216;-63
2024/01/29 05:03:54;;;;;;;17.87;13.33;;;3.90;99.90;;;;;;5069675;28;20209;-63
2024/01/29 05:06:23;;;;;;;25.10;14.07;;;3.90;99.90;;;;;;5087725;28;20191;-63
2024/01/29 05:08:51;;;;;;;20.03;13.07;;;3.90;99.90;;;;;;5087531;28;20195;-63
2024/01/29 05:11:19;;;;;;;18.83;13.10;;;4.00;99.90;;;;;;5087820;28;20229;-64
2024/01/29 05:13:48;;;;;;;22.07;13.13;;;4.00;99.90;;;;;;5087653;28;20194;-64
2024/01/29 05:16:18;;;;;;;22.07;13.30;;;4.00;99.90;;;;;;5087795;28;20684;-64
2024/01/29 05:18:47;;;;;;;18.00;13.10;;;4.00;99.90;;;;;;5087930;28;20219;-63
2024/01/29 05:21:16;;;;;;;21.93;13.77;;;4.00;99.90;;;;;;5087978;28;20226;-64
2024/01/29 05:23:44;;;;;;;21.50;13.17;;;4.00;99.90;;;;;;5087955;28;20229;-63
2024/01/29 05:26:13;;;;;;;25.03;13.93;;;4.00;99.90;;;;;;5087754;28;20199;-63
2024/01/29 05:28:41;;;;;;;22.27;14.10;;;4.10;99.90;;;;;;5087555;28;20210;-63
2024/01/29 05:31:09;;;;;;;19.47;13.50;;;4.10;99.90;;;;;;5087403;28;20220;-64
2024/01/29 05:33:39;;;;;;;23.00;13.60;;;4.10;99.90;;;;;;5087862;28;20234;-63
2024/01/29 05:36:08;;;;;;;18.00;12.50;;;4.10;99.90;;;;;;5091372;28;20193;-63
2024/01/29 05:38:36;;;;;;;18.57;12.70;;;4.10;99.90;;;;;;5091716;28;20191;-63
2024/01/29 05:41:05;;;;;;;20.83;12.10;;;4.10;99.90;;;;;;5091210;28;20238;-63
2024/01/29 05:43:33;;;;;;;18.13;12.20;;;4.10;99.90;;;;;;5091611;28;20199;-63
2024/01/29 05:46:01;;;;;;;23.80;12.80;;;4.00;99.90;;;;;;5091647;28;20211;-63
2024/01/29 05:48:30;;;;;;;20.70;12.67;;;4.10;99.90;;;;;;5091811;28;20661;-63
2024/01/29 05:51:00;;;;;;;19.83;12.83;;;4.10;99.90;;;;;;5091573;28;20200;-63
2024/01/29 05:53:29;;;;;;;19.47;11.80;;;4.10;99.90;;;;;;5091576;28;20202;-64
2024/01/29 05:55:57;;;;;;;21.20;13.73;;;4.00;99.90;;;;;;5091577;28;20211;-64
2024/01/29 05:58:27;;;;;;;18.97;12.10;;;4.00;99.90;;;;;;5091660;28;20192;-63
2024/01/29 06:00:55;;;;;;;15.23;11.30;;;4.10;99.90;;;;;;5091751;28;20229;-63
2024/01/29 06:03:24;;;;;;;18.27;11.00;;;4.10;99.90;;;;;;5092088;28;20248;-63
2024/01/29 06:05:52;;;;;;;21.13;11.30;;;4.10;99.90;;;;;;5091248;28;20205;-62
2024/01/29 06:08:22;;;;;;;15.57;10.07;;;4.10;99.90;;;;;;5091150;28;20199;-64
2024/01/29 06:10:53;;;;;;;20.00;12.07;;;4.10;99.90;;;;;;5091083;28;20200;-64
2024/01/29 06:13:23;;;;;;;18.30;11.43;;;4.10;99.90;;;;;;5091225;28;20214;-63
2024/01/29 06:15:52;;;;;;;16.07;11.43;;;4.10;99.90;;;;;;5090978;28;20734;-63
2024/01/29 06:18:20;;;;;;;17.13;11.00;;;4.20;99.90;;;;;;5091030;28;20191;-64
2024/01/29 06:20:49;;;;;;;15.50;10.50;;;4.30;99.90;;;;;;5090908;28;20222;-64
2024/01/29 06:23:17;;;;;;;16.07;11.23;;;4.30;99.90;;;;;;5090798;28;20226;-64
2024/01/29 06:25:47;;;;;;;22.67;9.97;;;4.30;99.90;;;;;;5090849;28;20188;-63
2024/01/29 06:28:17;;;;;;;16.53;10.87;;;4.20;99.90;;;;;;5090823;28;20230;-63
2024/01/29 06:30:45;;;;;;;18.33;10.83;;;4.30;99.90;;;;;;5090321;28;20234;-63
2024/01/29 06:33:13;;;;;;;15.87;11.60;;;4.30;99.90;;;;;;5090621;28;20203;-63
2024/01/29 06:35:42;;;;;;;18.13;10.90;;;4.20;99.90;;;;;;5090650;28;20202;-64
2024/01/29 06:38:10;;;;;;;17.87;10.70;;;4.20;99.90;;;;;;5090360;28;20211;-64
2024/01/29 06:40:39;;;;;;;20.07;11.67;;;4.30;99.90;;;;;;5072021;28;20204;-64
2024/01/29 06:43:08;;;;;;;14.43;9.90;;;4.30;99.90;;;;;;5090545;28;20195;-64
2024/01/29 06:45:37;;;;;;;16.43;10.27;;;4.30;99.90;;;;;;5089022;28;20850;-64
2024/01/29 06:48:08;;;;;;;17.77;10.40;;;4.30;99.80;;;;;;5090245;28;20198;-63
2024/01/29 06:50:38;;;;;;;19.30;11.47;;;4.30;99.90;;;;;;5090220;28;20188;-63
2024/01/29 06:53:06;;;;;;;16.53;10.70;;;4.30;99.90;;;;;;5090258;28;20201;-63
2024/01/29 06:55:35;;;;;;;19.27;11.03;;;4.40;99.70;;;;;;5090135;28;20229;-64
2024/01/29 06:58:04;;;;;;;21.47;12.00;;;4.30;99.90;;;;;;5090273;28;20550;-64
2024/01/29 07:00:36;;;;;;;20.30;10.77;;;4.20;99.90;;;;;;5089964;28;20213;-64
2024/01/29 07:03:05;;;;;;;20.10;11.83;;;4.20;99.90;;;;;;5089934;28;20305;-63
2024/01/29 07:05:33;;;;;;;22.30;11.57;;;4.20;99.90;;;;;;5089827;28;20922;-63
2024/01/29 07:08:02;;;;;;;18.50;11.43;;;4.20;99.90;;;;;;5089809;28;20193;-62
2024/01/29 07:10:31;;;;;;;16.40;10.90;;;4.20;99.90;;;;;;5089637;28;20201;-62
2024/01/29 07:12:59;;;;;;;19.53;10.63;;;4.30;99.90;;;;;;5089674;28;20224;-64
2024/01/29 07:15:28;;;;;;;16.50;10.63;;;4.30;99.90;;;;;;5089463;28;20197;-63
2024/01/29 07:17:58;;;;;;;16.50;10.80;;;4.40;99.70;;;;;;5089482;28;20864;-64
2024/01/29 07:20:27;;;;;;;16.07;10.40;;;4.50;99.00;;;;;;5089604;28;20193;-63
2024/01/29 07:22:57;;;;;;;18.03;11.10;;;4.50;98.70;;;;;;5089393;28;20269;-64
2024/01/29 07:25:26;;;;;;;19.97;11.60;;;4.50;98.70;;;;;;5089375;28;20185;-64
2024/01/29 07:27:56;;;;;;;23.87;12.37;;;4.50;98.40;;;;;;5089376;28;20194;-64
2024/01/29 07:30:25;;;;;;;19.93;10.63;;;4.50;98.30;;;;;;5088723;28;20242;-64
2024/01/29 07:32:53;;;;;;;18.77;12.07;;;4.50;97.80;;;;;;5089134;28;20575;-64
2024/01/29 07:35:23;;;;;;;17.87;11.40;;;4.70;97.20;;;;;;5089169;28;20296;-64
2024/01/29 07:37:52;;;;;;;18.83;10.67;;;4.80;96.20;;;;;;5089058;28;20269;-64
2024/01/29 07:40:21;;;;;;;20.20;10.93;;;5.10;94.70;;;;;;5089194;28;20226;-64
2024/01/29 07:42:49;;;;;;;18.63;10.97;;;5.20;93.50;;;;;;5089158;28;20243;-63
2024/01/29 07:45:18;;;;;;;18.57;10.63;;;5.40;91.30;;;;;;5088910;28;20190;-64
2024/01/29 07:47:46;;;;;;;16.97;10.97;;;5.70;90.10;;;;;;5088877;28;20191;-64
2024/01/29 07:50:15;;;;;;;16.23;11.03;;;5.90;86.20;;;;;;5089182;28;20195;-64
2024/01/29 07:52:44;;;;;;;33.17;19.60;;;5.90;87.60;;;;;;5089063;28;20208;-63
2024/01/29 07:55:13;;;;;;;18.30;11.77;;;5.90;89.40;;;;;;5088742;28;20199;-64
2024/01/29 07:57:41;;;;;;;16.87;12.00;;;5.80;85.80;;;;;;5088401;28;20741;-64
2024/01/29 08:00:11;;;;;;;17.57;11.30;;;5.90;84.80;;;;;;5088095;28;20196;-65
2024/01/29 08:02:39;;;;;;;18.00;11.87;;;5.90;83.80;;;;;;5088911;28;20526;-64
2024/01/29 08:05:07;;;;;;;15.83;11.03;;;5.80;83.70;;;;;;5088882;28;20231;-63
2024/01/29 08:07:37;;;;;;;27.33;16.50;;;5.90;82.70;;;;;;5088522;28;20309;-64
2024/01/29 08:10:08;;;;;;;18.33;11.50;;;5.90;85.50;;;;;;5088694;28;20194;-64
2024/01/29 08:12:36;;;;;;;21.73;11.60;;;6.00;81.60;;;;;;5088078;28;21062;-64
2024/01/29 08:15:06;;;;;;;20.73;12.00;;;6.20;81.60;;;;;;5088439;28;20278;-63
2024/01/29 08:17:34;;;;;;;19.33;12.70;;;6.20;79.40;;;;;;5088360;28;20992;-63
2024/01/29 08:20:03;;;;;;;16.63;11.73;;;6.40;79.40;;;;;;5088726;28;20201;-63
2024/01/29 08:22:32;;;;;;;21.80;14.00;;;6.40;78.40;;;;;;5088624;28;20221;-64
2024/01/29 08:25:01;;;;;;;20.40;11.77;;;6.40;78.60;;;;;;5088364;28;20212;-63
2024/01/29 08:27:31;;;;;;;17.47;11.67;;;6.50;75.90;;;;;;5088597;28;20181;-64
2024/01/29 08:29:59;;;;;;;20.70;11.93;;;6.40;77.80;;;;;;5087679;28;20232;-63
2024/01/29 08:32:28;;;;;;;16.83;11.93;;;6.50;77.70;;;;;;5088374;28;20258;-63
2024/01/29 08:34:57;;;;;;;18.10;11.73;;;6.50;76.50;;;;;;5088094;28;20200;-65
2024/01/29 08:37:27;;;;;;;16.53;10.80;;;6.40;75.50;;;;;;5088504;28;20204;-64
2024/01/29 08:39:55;;;;;;;18.57;10.97;;;6.20;77.00;;;;;;5088122;28;20200;-64
2024/01/29 08:42:24;;;;;;;16.43;11.43;;;6.10;76.80;;;;;;5088153;28;20323;-64
2024/01/29 08:44:56;;;;;;;17.13;11.10;;;6.00;77.30;;;;;;5087660;28;20236;-64
2024/01/29 08:47:24;;;;;;;15.87;9.63;;;6.10;76.90;;;;;;5107607;28;20226;-63
2024/01/29 08:49:52;;;;;;;16.20;10.90;;;6.10;77.20;;;;;;5108945;28;20192;-64
2024/01/29 08:52:21;;;;;;;17.93;11.03;;;6.20;77.00;;;;;;5108713;28;20841;-66
2024/01/29 08:54:49;;;;;;;14.77;10.10;;;6.10;76.40;;;;;;5108406;28;20326;-62
2024/01/29 08:57:18;;;;;;;17.83;11.00;;;6.20;76.10;;;;;;5108290;28;20198;-63
2024/01/29 08:59:46;;;;;;;16.40;10.13;;;6.30;76.00;;;;;;5108603;28;20755;-63
2024/01/29 09:02:16;;;;;;;17.93;11.10;;;6.20;74.80;;;;;;5108015;28;20224;-63
2024/01/29 09:04:44;;;;;;;15.80;11.00;;;6.30;74.80;;;;;;5108059;28;20486;-63
2024/01/29 09:07:13;;;;;;;14.43;10.20;;;6.20;75.80;;;;;;5108132;28;20195;-63
2024/01/29 09:09:43;;;;;;;17.10;10.63;;;6.10;74.30;;;;;;5107316;28;20199;-62
2024/01/29 09:12:12;;;;;;;17.90;11.53;;;6.30;74.30;;;;;;5108110;28;20306;-63
2024/01/29 09:14:40;;;;;;;19.83;11.30;;;6.30;74.20;;;;;;5108102;28;20225;-62
2024/01/29 09:17:08;;;;;;;19.53;10.47;;;6.30;73.90;;;;;;5108390;28;20191;-63
2024/01/29 09:19:38;;;;;;;15.07;10.83;;;6.40;73.40;;;;;;5108043;28;20202;-63
2024/01/29 09:22:06;;;;;;;18.33;11.37;;;6.50;73.10;;;;;;5108126;28;20176;-64
2024/01/29 09:24:35;;;;;;;21.93;11.00;;;6.60;73.00;;;;;;5108163;28;20211;-63
2024/01/29 09:27:03;;;;;;;15.33;10.10;;;6.70;72.00;;;;;;5107824;28;20198;-63
2024/01/29 09:29:32;;;;;;;19.43;10.07;;;6.70;71.30;;;;;;5108194;28;20210;-63
2024/01/29 09:32:00;;;;;;;18.37;12.13;;;6.80;71.10;;;;;;5108144;28;20227;-64
2024/01/29 09:34:28;;;;;;;16.10;11.60;;;6.90;70.90;;;;;;5107708;28;20569;-63
2024/01/29 09:36:59;;;;;;;15.70;10.30;;;6.90;70.10;;;;;;5108068;28;20203;-62
2024/01/29 09:39:27;;;;;;;16.33;10.80;;;7.10;70.00;;;;;;5107827;28;20275;-63
2024/01/29 09:42:02;;;;;;;14.97;11.50;;;7.10;68.90;;;;;;5107502;28;20303;-63
2024/01/29 09:44:38;;;;;;;18.70;11.40;;;7.00;68.20;;;;;;5107656;28;20338;-63
2024/01/29 09:47:07;;;;;;;15.47;10.63;;;7.00;69.20;;;;;;5107603;28;20249;-63
2024/01/29 09:49:36;;;;;;;17.93;11.37;;;7.20;69.40;;;;;;5107546;28;20568;-63
2024/01/29 09:52:08;;;;;;;18.17;11.57;;;7.30;68.20;;;;;;5107534;28;20669;-63
2024/01/29 09:54:39;;;;;;;16.53;10.37;;;7.10;67.50;;;;;;5107854;28;20204;-63
2024/01/29 09:57:09;;;;;;;16.03;9.77;;;7.30;68.20;;;;;;5107663;28;20194;-65
2024/01/29 09:59:38;;;;;;;17.90;10.63;;;7.50;68.20;;;;;;5107264;28;20263;-64
2024/01/29 10:02:06;;;;;;;23.87;13.80;;;7.50;66.90;;;;;;5107617;28;20199;-64
2024/01/29 10:04:35;;;;;;;19.17;11.50;;;7.70;67.00;;;;;;5107337;28;20223;-64
2024/01/29 10:07:04;;;;;;;18.50;10.30;;;7.70;65.80;;;;;;5107441;28;20192;-64
2024/01/29 10:09:33;;;;;;;15.10;11.10;;;7.70;65.00;;;;;;5107319;28;20192;-64
2024/01/29 10:12:05;;;;;;;18.90;11.00;;;7.80;64.70;;;;;;5107217;28;20192;-63
2024/01/29 10:14:34;;;;;;;17.00;11.23;;;7.80;64.50;;;;;;5107764;28;20192;-64
2024/01/29 10:17:02;;;;;;;15.63;9.97;;;7.90;64.70;;;;;;5107497;28;20200;-63
2024/01/29 10:19:37;;;;;;;17.07;11.03;;;8.00;63.20;;;;;;5107447;28;20195;-64
2024/01/29 10:22:12;;;;;;;16.57;11.00;;;8.20;63.80;;;;;;5111105;28;20205;-64
2024/01/29 10:24:42;;;;;;;19.47;9.87;;;8.20;62.90;;;;;;5110955;28;20226;-64
2024/01/29 10:27:10;;;;;;;17.50;10.47;;;8.10;62.80;;;;;;5110959;28;20196;-63
2024/01/29 10:29:48;;;;;;;14.43;9.83;;;8.30;63.60;;;;;;5110221;28;20195;-64
2024/01/29 10:32:16;;;;;;;15.80;10.77;;;8.50;62.50;;;;;;5110694;28;20205;-63
2024/01/29 10:34:45;;;;;;;13.97;10.07;;;8.60;61.10;;;;;;5110596;28;20206;-64
2024/01/29 10:37:16;;;;;;;21.27;9.70;;;8.50;60.40;;;;;;5110753;28;20196;-62
2024/01/29 10:39:47;;;;;;;14.27;10.83;;;8.50;60.00;;;;;;5110451;28;20199;-64
2024/01/29 10:42:21;;;;;;;16.67;11.40;;;8.60;59.80;;;;;;5110457;28;20201;-64
2024/01/29 10:44:53;;;;;;;20.13;12.53;;;8.70;59.50;;;;;;5110486;28;20227;-64
2024/01/29 10:47:25;;;;;;;22.40;12.50;;;8.80;59.60;;;;;;5110417;28;20204;-65
2024/01/29 10:49:56;;;;;;;19.13;11.43;;;8.90;59.00;;;;;;5110500;28;20193;-65
2024/01/29 10:52:25;;;;;;;20.20;11.43;;;8.80;59.00;;;;;;5110416;28;20188;-65
2024/01/29 10:54:56;;;;;;;20.57;11.07;;;8.90;58.90;;;;;;5110270;28;20189;-64
2024/01/29 10:57:26;;;;;;;20.67;11.97;;;8.80;59.00;;;;;;5110154;28;20208;-64
2024/01/29 10:59:56;;;;;;;27.70;14.27;;;9.00;59.10;;;;;;5110321;28;20286;-64
2024/01/29 11:02:25;;;;;;;16.57;9.73;;;9.00;59.70;;;;;;5109778;28;20205;-64
2024/01/29 11:04:53;;;;;;;18.53;11.40;;;9.10;58.30;;;;;;5110196;28;20256;-64
2024/01/29 11:07:26;;;;;;;15.83;10.03;;;9.30;58.30;;;;;;5110390;28;20566;-65
2024/01/29 11:10:02;;;;;;;14.93;10.00;;;9.20;58.30;;;;;;5091694;28;20570;-64
2024/01/29 11:12:32;;;;;;;20.87;10.70;;;9.10;58.40;;;;;;5109708;28;20189;-66
2024/01/29 11:15:01;;;;;;;16.60;9.97;;;9.30;59.00;;;;;;5110793;28;20200;-63
2024/01/29 11:17:29;;;;;;;19.60;9.97;;;9.30;58.40;;;;;;5110375;28;20244;-64
2024/01/29 11:20:01;;;;;;;17.37;9.67;;;9.30;58.20;;;;;;5111070;28;20205;-65
2024/01/29 11:22:36;;;;;;;18.67;11.43;;;9.10;58.30;;;;;;5111147;28;20282;-64
2024/01/29 11:25:16;;;;;;;15.90;10.23;;;9.10;59.00;;;;;;5110350;28;20310;-65
2024/01/29 11:27:45;;;;;;;14.97;10.07;;;9.10;58.90;;;;;;5110285;28;20749;-64
2024/01/29 11:30:17;;;;;;;17.97;12.30;;;9.10;59.00;;;;;;5110188;28;20229;-64
2024/01/29 11:32:46;;;;;;;18.33;10.40;;;9.10;59.10;;;;;;5109412;28;20205;-64
2024/01/29 11:35:16;;;;;;;23.07;12.43;;;8.80;58.80;;;;;;5110785;28;20200;-65
2024/01/29 11:37:51;;;;;;;15.50;9.87;;;8.80;59.80;;;;;;5110616;28;20729;-64
2024/01/29 11:40:33;;;;;;;13.97;10.13;;;8.90;59.70;;;;;;5110861;28;20199;-64
2024/01/29 11:43:03;;;;;;;17.30;10.37;;;9.10;59.00;;;;;;5110070;28;20225;-65
2024/01/29 11:45:31;;;;;;;15.77;10.70;;;9.30;58.80;;;;;;5110158;28;20217;-64
2024/01/29 11:48:00;;;;;;;18.97;11.13;;;9.30;58.50;;;;;;5109876;28;20244;-65
2024/01/29 11:50:28;;;;;;;13.57;10.37;;;9.30;58.30;;;;;;5109949;28;20190;-64
2024/01/29 11:52:57;;;;;;;18.00;10.67;;;9.50;58.40;;;;;;5109778;28;20876;-65
2024/01/29 11:55:27;;;;;;;17.20;10.83;;;9.30;58.10;;;;;;5110106;28;20206;-64
2024/01/29 11:57:57;;;;;;;19.90;12.03;;;9.10;58.40;;;;;;5090326;28;20206;-64
2024/01/29 12:00:34;;;;;;;16.93;10.30;;;9.10;59.00;;;;;;5090812;28;20194;-64
2024/01/29 12:03:20;;;;;;;18.70;10.80;;;9.40;58.90;;;;;;5088155;28;20195;-64
2024/01/29 12:05:49;;;;;;;16.97;10.17;;;9.30;58.00;;;;;;5089627;28;20226;-64
2024/01/29 12:08:18;;;;;;;14.50;9.70;;;9.30;58.10;;;;;;5089450;28;20203;-64
2024/01/29 12:10:49;;;;;;;18.70;10.70;;;9.30;58.10;;;;;;5089336;28;20562;-65
2024/01/29 12:13:20;;;;;;;16.93;10.57;;;9.40;58.00;;;;;;5089662;28;20189;-65
2024/01/29 12:15:52;;;;;;;14.07;9.57;;;9.40;57.90;;;;;;5089785;28;20230;-65
2024/01/29 12:18:23;;;;;;;16.97;10.43;;;9.20;57.50;;;;;;5089348;28;20261;-65
2024/01/29 12:20:51;;;;;;;16.90;10.27;;;9.20;57.70;;;;;;5089517;28;20609;-65
2024/01/29 12:23:21;;;;;;;14.17;9.97;;;9.30;57.50;;;;;;5089207;28;20198;-65
2024/01/29 12:25:53;;;;;;;16.10;10.17;;;9.40;57.20;;;;;;5088901;28;20321;-65
2024/01/29 12:28:25;;;;;;;14.37;8.60;;;9.40;57.00;;;;;;5089059;28;20324;-65
2024/01/29 12:30:55;;;;;;;13.03;9.17;;;9.50;57.00;;;;;;5088815;28;20230;-64
2024/01/29 12:33:28;;;;;;;13.80;8.90;;;9.60;56.40;;;;;;5070698;28;20580;-65
2024/01/29 12:35:57;;;;;;;13.93;8.80;;;9.60;55.60;;;;;;5088895;28;20248;-64
2024/01/29 12:38:26;;;;;;;17.43;9.70;;;9.30;55.40;;;;;;5088965;28;20243;-64
2024/01/29 12:40:55;;;;;;;15.70;10.17;;;9.20;55.60;;;;;;5088732;28;20194;-65
2024/01/29 12:43:28;;;;;;;19.93;9.87;;;9.10;56.10;;;;;;5088674;28;20206;-64
2024/01/29 12:46:04;;;;;;;12.83;9.53;;;9.10;56.80;;;;;;5088769;28;20232;-64
2024/01/29 12:48:33;;;;;;;15.47;9.53;;;9.30;56.10;;;;;;5088553;28;20213;-64